Glendale, Ohio
Current Conditions -  °F | °C
As of 1:53 AM on Friday 28 Nov 2014 (Local Time) from KHAO Reporting Station
Overcast Overcast  
Wind Chill: 28°   Ceiling: 3800
Heat Index: 28°   Visibility: 10mi
Dew Point: 17°   Wind: 3mph
Humidity: 63%   Direction: 260°W
Pressure: 30.39"   Gusts: NA
Location:  39.286°N, 84.4668°W
Report Text: KHAO 280653Z AUTO 26003KT 10SM OVC038 M02/M08 A3039 RMK AO2 SLP298 T10221083
Loading
Personal Weather Stations






























Interactive Weather Map New forecast layout! Learn more

10-Day Weather Forecast

Advertisements
Track Severe Weather on mobile